createdAt,value
2023-01-27T00:00:51.129Z,99.05
2023-01-27T00:03:18.592Z,99.19
2023-01-27T00:05:46.905Z,99.25
2023-01-27T00:08:14.707Z,99.01
2023-01-27T00:10:41.934Z,99.33
2023-01-27T00:13:28.384Z,99.22
2023-01-27T00:15:56.218Z,99.18
2023-01-27T00:18:24.015Z,99.11
2023-01-27T00:21:10.715Z,99.22
2023-01-27T00:23:56.506Z,99.03
2023-01-27T00:26:23.712Z,99.58
2023-01-27T00:28:50.943Z,99.42
2023-01-27T00:31:38.025Z,99.66
2023-01-27T00:34:11.951Z,99.38
2023-01-27T00:36:41.297Z,99.55
2023-01-27T00:39:11.013Z,99.74
2023-01-27T00:41:39.898Z,99.66
2023-01-27T00:44:07.579Z,99.87
2023-01-27T00:46:35.096Z,99.80
2023-01-27T00:49:02.215Z,99.95
2023-01-27T00:51:30.719Z,99.95
2023-01-27T00:53:59.465Z,100.00
2023-01-27T00:56:28.376Z,100.00
2023-01-27T00:58:55.892Z,100.00
2023-01-27T01:01:23.736Z,100.00
2023-01-27T01:03:50.955Z,100.00
2023-01-27T01:06:19.234Z,100.00
2023-01-27T01:08:48.986Z,100.00
2023-01-27T01:11:17.618Z,100.00
2023-01-27T01:13:46.153Z,100.00
2023-01-27T01:16:22.501Z,100.00
2023-01-27T01:18:49.800Z,100.00
2023-01-27T01:21:17.181Z,100.00
2023-01-27T01:23:46.297Z,100.00
2023-01-27T01:26:15.379Z,100.00
2023-01-27T01:28:44.763Z,100.00
2023-01-27T01:31:18.143Z,100.00
2023-01-27T01:33:46.061Z,100.00
2023-01-27T01:36:16.279Z,100.00
2023-01-27T01:38:43.500Z,100.00
2023-01-27T01:41:19.856Z,100.00
2023-01-27T01:43:47.495Z,100.00
2023-01-27T01:46:14.658Z,100.00
2023-01-27T01:48:57.581Z,100.00
2023-01-27T01:52:09.781Z,99.79
2023-01-27T01:54:42.201Z,100.00
2023-01-27T01:57:22.259Z,99.88
2023-01-27T02:00:03.548Z,99.62
2023-01-27T02:02:41.146Z,99.59
2023-01-27T02:05:21.989Z,99.44
2023-01-27T02:08:05.095Z,99.35
2023-01-27T02:10:34.203Z,99.48
2023-01-27T02:13:01.721Z,99.41
2023-01-27T02:15:33.225Z,99.36
2023-01-27T02:18:01.826Z,99.28
2023-01-27T02:20:41.577Z,99.01
2023-01-27T02:23:28.018Z,99.27
2023-01-27T02:26:05.471Z,98.87
2023-01-27T02:28:33.522Z,98.99
2023-01-27T02:31:01.223Z,98.79
2023-01-27T02:33:28.586Z,98.49
2023-01-27T02:35:55.591Z,98.52
2023-01-27T02:38:23.680Z,98.51
2023-01-27T02:40:55.325Z,98.70
2023-01-27T02:43:22.469Z,98.36
2023-01-27T02:45:49.631Z,98.25
2023-01-27T02:48:16.844Z,98.62
2023-01-27T02:50:44.075Z,98.60
2023-01-27T02:53:11.645Z,98.46
2023-01-27T02:55:38.845Z,98.72
2023-01-27T02:58:06.978Z,98.65
2023-01-27T03:00:47.180Z,98.78
2023-01-27T03:03:14.324Z,98.83
2023-01-27T03:05:41.903Z,98.52
2023-01-27T03:08:09.226Z,98.96
2023-01-27T03:10:36.592Z,99.01
2023-01-27T03:13:04.079Z,98.75
2023-01-27T03:15:49.693Z,99.17
2023-01-27T03:18:17.502Z,99.05
2023-01-27T03:20:47.067Z,99.27
2023-01-27T03:23:19.181Z,99.30
2023-01-27T03:25:50.050Z,99.30
2023-01-27T03:28:17.420Z,99.15
2023-01-27T03:31:08.128Z,99.18
2023-01-27T03:33:53.351Z,99.20
2023-01-27T03:36:45.413Z,99.15
2023-01-27T03:39:31.399Z,99.47
2023-01-27T03:42:17.038Z,99.53
2023-01-27T03:45:03.314Z,99.58
2023-01-27T03:47:30.534Z,99.81
2023-01-27T03:49:57.772Z,99.80
2023-01-27T03:52:24.873Z,99.67
2023-01-27T03:54:51.944Z,99.48
2023-01-27T03:57:19.119Z,99.67
2023-01-27T03:59:46.192Z,99.41
2023-01-27T04:02:32.125Z,99.80
2023-01-27T04:05:17.587Z,99.53
2023-01-27T04:07:44.672Z,99.72
2023-01-27T04:10:11.887Z,99.50
2023-01-27T04:12:39.010Z,99.27
2023-01-27T04:15:06.743Z,99.49
2023-01-27T04:17:39.128Z,99.29
2023-01-27T04:20:06.766Z,99.73
2023-01-27T04:22:33.918Z,99.71
2023-01-27T04:25:00.978Z,99.90
2023-01-27T04:27:28.185Z,99.65
2023-01-27T04:29:55.284Z,99.88
2023-01-27T04:32:22.417Z,99.84
2023-01-27T04:34:49.558Z,99.69
2023-01-27T04:37:16.644Z,100.00
2023-01-27T04:39:45.905Z,100.00
2023-01-27T04:42:13.107Z,99.93
2023-01-27T04:44:40.414Z,100.00
2023-01-27T04:47:07.610Z,100.00
2023-01-27T04:49:34.677Z,100.00
2023-01-27T04:52:01.765Z,100.00
2023-01-27T04:54:28.795Z,100.00
2023-01-27T04:57:01.399Z,100.00
2023-01-27T04:59:28.604Z,100.00
2023-01-27T05:01:56.051Z,100.00
2023-01-27T05:04:23.278Z,100.00
2023-01-27T05:06:50.342Z,100.00
2023-01-27T05:09:17.583Z,100.00
2023-01-27T05:11:44.780Z,100.00
2023-01-27T05:14:14.094Z,100.00
2023-01-27T05:16:41.345Z,100.00
2023-01-27T05:19:09.452Z,100.00
2023-01-27T05:21:36.659Z,100.00
2023-01-27T05:24:03.904Z,100.00
2023-01-27T05:26:31.040Z,100.00
2023-01-27T05:28:59.083Z,100.00
2023-01-27T05:31:29.278Z,100.00
2023-01-27T05:33:58.518Z,100.00
2023-01-27T05:36:26.788Z,100.00
2023-01-27T05:38:55.092Z,100.00
2023-01-27T05:41:22.999Z,100.00
2023-01-27T05:43:55.277Z,100.00
2023-01-27T05:46:27.759Z,100.00
2023-01-27T05:48:57.013Z,100.00
2023-01-27T05:51:26.033Z,100.00
2023-01-27T05:53:54.108Z,100.00
2023-01-27T05:56:21.952Z,100.00
2023-01-27T05:58:49.488Z,100.00
2023-01-27T06:01:19.300Z,100.00
2023-01-27T06:03:47.063Z,100.00
2023-01-27T06:06:16.344Z,100.00
2023-01-27T06:08:44.164Z,100.00
2023-01-27T06:11:11.687Z,100.00
2023-01-27T06:13:39.851Z,100.00
2023-01-27T06:16:12.389Z,100.00
2023-01-27T06:18:40.323Z,100.00
2023-01-27T06:21:10.104Z,100.00
2023-01-27T06:23:38.087Z,100.00
2023-01-27T06:26:16.651Z,100.00
2023-01-27T06:28:44.286Z,100.00
2023-01-27T06:31:14.265Z,100.00
2023-01-27T06:33:41.811Z,100.00
2023-01-27T06:36:12.130Z,100.00
2023-01-27T06:38:39.445Z,100.00
2023-01-27T06:41:06.767Z,100.00
2023-01-27T06:43:34.255Z,100.00
2023-01-27T06:46:04.383Z,100.00
2023-01-27T06:48:32.648Z,100.00
2023-01-27T06:50:59.984Z,100.00
2023-01-27T06:53:27.628Z,100.00
2023-01-27T06:56:01.658Z,100.00
2023-01-27T06:58:29.921Z,100.00
2023-01-27T07:00:57.808Z,100.00
2023-01-27T07:03:26.126Z,100.00
2023-01-27T07:05:53.854Z,100.00
2023-01-27T07:08:21.033Z,100.00
2023-01-27T07:10:48.181Z,100.00
2023-01-27T07:13:15.899Z,100.00
2023-01-27T07:15:43.294Z,100.00
2023-01-27T07:18:13.895Z,100.00
2023-01-27T07:20:41.707Z,100.00
2023-01-27T07:23:10.133Z,100.00
2023-01-27T07:25:37.296Z,100.00
2023-01-27T07:28:04.623Z,100.00
2023-01-27T07:30:34.053Z,100.00
2023-01-27T07:33:09.573Z,100.00
2023-01-27T07:35:38.193Z,100.00
2023-01-27T07:38:07.103Z,100.00
2023-01-27T07:40:34.966Z,100.00
2023-01-27T07:43:02.711Z,100.00
2023-01-27T07:45:30.626Z,100.00
2023-01-27T07:48:04.955Z,100.00
2023-01-27T07:50:32.178Z,100.00
2023-01-27T07:53:04.012Z,100.00
2023-01-27T07:55:33.164Z,100.00
2023-01-27T07:58:00.516Z,100.00
2023-01-27T08:00:29.213Z,100.00
2023-01-27T08:02:57.932Z,100.00
2023-01-27T08:05:26.108Z,99.95
2023-01-27T08:07:54.762Z,100.00
2023-01-27T08:10:22.719Z,100.00
2023-01-27T08:12:49.868Z,100.00
2023-01-27T08:15:18.970Z,99.97
2023-01-27T08:17:56.574Z,99.60
2023-01-27T08:20:25.993Z,99.36
2023-01-27T08:22:53.334Z,99.12
2023-01-27T08:25:20.617Z,99.05
2023-01-27T08:27:55.659Z,98.50
2023-01-27T08:30:23.306Z,98.40
2023-01-27T08:32:50.506Z,98.42
2023-01-27T08:35:17.862Z,98.12
2023-01-27T08:37:48.461Z,97.87
2023-01-27T08:40:15.924Z,97.96
2023-01-27T08:42:43.056Z,97.69
2023-01-27T08:45:10.533Z,97.32
2023-01-27T08:47:37.612Z,97.45
2023-01-27T08:50:04.857Z,97.14
2023-01-27T08:52:32.017Z,97.30
2023-01-27T08:54:59.214Z,96.93
2023-01-27T08:57:26.569Z,96.76
2023-01-27T08:59:53.630Z,96.77
2023-01-27T09:02:22.570Z,96.41
2023-01-27T09:04:49.720Z,96.10
2023-01-27T09:07:17.596Z,96.07
2023-01-27T09:09:48.732Z,95.89
2023-01-27T09:12:16.215Z,96.00
2023-01-27T09:14:43.400Z,96.24
2023-01-27T09:17:10.641Z,95.69
2023-01-27T09:19:37.621Z,95.81
2023-01-27T09:22:06.040Z,96.02
2023-01-27T09:24:33.312Z,95.94
2023-01-27T09:27:01.174Z,95.34
2023-01-27T09:29:29.496Z,95.60
2023-01-27T09:31:56.744Z,95.37
2023-01-27T09:34:23.877Z,95.18
2023-01-27T09:36:57.782Z,95.36
2023-01-27T09:39:26.449Z,95.43
2023-01-27T09:42:14.684Z,95.03
2023-01-27T09:44:41.744Z,95.00
2023-01-27T09:47:11.785Z,94.92
2023-01-27T09:50:10.907Z,95.00
2023-01-27T09:53:01.642Z,94.98
2023-01-27T09:55:31.634Z,94.88
2023-01-27T09:58:09.266Z,95.05
2023-01-27T10:00:53.360Z,95.14
2023-01-27T10:03:38.842Z,94.74
2023-01-27T10:06:11.484Z,94.65
2023-01-27T10:08:50.741Z,94.75
2023-01-27T10:11:58.843Z,94.77
2023-01-27T10:14:47.393Z,94.65
2023-01-27T10:17:24.438Z,94.58
2023-01-27T10:19:57.423Z,94.56
2023-01-27T10:22:46.567Z,94.62
2023-01-27T10:25:32.672Z,94.39
2023-01-27T10:28:09.911Z,94.45
2023-01-27T10:30:38.538Z,94.54
2023-01-27T10:33:44.013Z,94.67
2023-01-27T10:36:50.549Z,95.21
2023-01-27T10:39:44.364Z,94.64
2023-01-27T10:42:23.404Z,94.47
2023-01-27T10:45:06.122Z,94.28
2023-01-27T10:47:39.140Z,94.47
2023-01-27T10:50:19.900Z,94.36
2023-01-27T10:52:58.275Z,94.03
2023-01-27T10:55:44.005Z,94.02
2023-01-27T10:58:34.345Z,93.73
2023-01-27T11:01:20.305Z,93.56
2023-01-27T11:03:55.056Z,93.79
2023-01-27T11:06:27.571Z,93.55
2023-01-27T11:09:05.693Z,93.48
2023-01-27T11:11:46.693Z,93.72
2023-01-27T11:14:27.752Z,93.34
2023-01-27T11:17:08.426Z,92.84
2023-01-27T11:19:45.109Z,93.07
2023-01-27T11:22:24.480Z,93.15
2023-01-27T11:25:30.033Z,93.38
2023-01-27T11:28:31.439Z,92.99
2023-01-27T11:31:14.297Z,93.30
2023-01-27T11:34:11.002Z,93.27
2023-01-27T11:36:38.246Z,92.98
2023-01-27T11:39:06.938Z,93.56
2023-01-27T11:41:38.920Z,93.57
2023-01-27T11:44:22.469Z,93.72
2023-01-27T11:46:51.060Z,93.80
2023-01-27T11:49:28.707Z,93.91
2023-01-27T11:52:11.354Z,93.75
2023-01-27T11:54:47.099Z,94.05
2023-01-27T11:57:22.584Z,93.76
2023-01-27T11:59:55.772Z,93.80
2023-01-27T12:02:44.871Z,94.18
2023-01-27T12:05:19.306Z,94.27
2023-01-27T12:07:56.568Z,94.49
2023-01-27T12:10:35.443Z,94.63
2023-01-27T12:13:10.193Z,94.89
2023-01-27T12:15:47.360Z,95.15
2023-01-27T12:18:15.802Z,95.34
2023-01-27T12:20:49.554Z,95.47
2023-01-27T12:23:19.456Z,95.83
2023-01-27T12:25:51.159Z,96.11
2023-01-27T12:28:52.432Z,96.62
2023-01-27T12:31:30.397Z,96.78
2023-01-27T12:34:13.539Z,97.15
2023-01-27T12:36:43.598Z,96.95
2023-01-27T12:39:57.227Z,97.25
2023-01-27T12:42:43.025Z,97.41
2023-01-27T12:45:31.344Z,97.38
2023-01-27T12:48:13.039Z,97.48
2023-01-27T12:50:42.215Z,97.78
2023-01-27T12:53:17.629Z,97.98
2023-01-27T12:56:00.283Z,98.02
2023-01-27T12:58:40.586Z,98.18
2023-01-27T13:01:34.140Z,98.42
2023-01-27T13:04:03.935Z,98.77
2023-01-27T13:06:37.647Z,98.67
2023-01-27T13:09:05.354Z,98.70
2023-01-27T13:11:39.777Z,98.90
2023-01-27T13:14:18.015Z,98.91
2023-01-27T13:16:53.288Z,99.14
2023-01-27T13:19:23.195Z,98.96
2023-01-27T13:21:53.537Z,99.02
2023-01-27T13:24:29.661Z,99.20
2023-01-27T13:26:57.957Z,99.74
2023-01-27T13:29:30.748Z,99.45
2023-01-27T13:32:11.827Z,99.17
2023-01-27T13:34:45.978Z,99.56
2023-01-27T13:37:38.005Z,99.95
2023-01-27T13:40:32.343Z,99.91
2023-01-27T13:43:24.921Z,99.96
2023-01-27T13:46:00.502Z,99.97
2023-01-27T13:48:33.473Z,100.00
2023-01-27T13:51:03.740Z,100.00
2023-01-27T13:53:31.101Z,100.00
2023-01-27T13:56:37.291Z,99.86
2023-01-27T13:59:13.155Z,100.00
2023-01-27T14:01:47.019Z,100.00
2023-01-27T14:04:32.665Z,100.00
2023-01-27T14:07:22.740Z,100.00
2023-01-27T14:09:59.052Z,100.00
2023-01-27T14:13:04.391Z,100.00
2023-01-27T14:15:40.581Z,100.00
2023-01-27T14:18:27.831Z,100.00
2023-01-27T14:21:13.223Z,100.00
2023-01-27T14:24:01.369Z,100.00
2023-01-27T14:26:56.634Z,100.00
2023-01-27T14:29:54.795Z,100.00
2023-01-27T14:32:34.202Z,100.00
2023-01-27T14:35:32.137Z,100.00
2023-01-27T14:38:23.427Z,100.00
2023-01-27T14:41:21.434Z,100.00
2023-01-27T14:43:59.876Z,100.00
2023-01-27T14:46:44.885Z,100.00
2023-01-27T14:49:32.152Z,100.00
2023-01-27T14:52:12.426Z,100.00
2023-01-27T14:55:18.021Z,100.00
2023-01-27T14:58:23.179Z,100.00
2023-01-27T15:01:14.857Z,100.00
2023-01-27T15:04:03.248Z,100.00
2023-01-27T15:06:38.133Z,100.00
2023-01-27T15:09:30.271Z,100.00
2023-01-27T15:12:16.738Z,100.00
2023-01-27T15:14:49.622Z,100.00
2023-01-27T15:17:37.850Z,100.00
2023-01-27T15:20:30.835Z,100.00
2023-01-27T15:23:40.302Z,100.00
2023-01-27T15:26:09.979Z,100.00
2023-01-27T15:28:40.274Z,100.00
2023-01-27T15:31:24.298Z,100.00
2023-01-27T15:34:03.715Z,100.00
2023-01-27T15:36:58.901Z,100.00
2023-01-27T15:39:40.494Z,100.00
2023-01-27T15:42:11.558Z,100.00
2023-01-27T15:44:41.710Z,100.00
2023-01-27T15:47:17.547Z,100.00
2023-01-27T15:49:52.058Z,100.00
2023-01-27T15:52:51.526Z,100.00
2023-01-27T15:55:26.128Z,100.00
2023-01-27T15:58:04.694Z,100.00
2023-01-27T16:00:38.290Z,100.00
2023-01-27T16:03:19.800Z,100.00
2023-01-27T16:05:52.432Z,100.00
2023-01-27T16:08:20.636Z,100.00
2023-01-27T16:10:47.832Z,99.86
2023-01-27T16:13:26.500Z,99.43
2023-01-27T16:16:19.883Z,99.31
2023-01-27T16:19:11.099Z,98.48
2023-01-27T16:21:51.413Z,97.94
2023-01-27T16:24:24.480Z,97.36
2023-01-27T16:27:07.603Z,96.70
2023-01-27T16:29:47.586Z,96.46
2023-01-27T16:32:20.908Z,96.46
2023-01-27T16:34:54.463Z,95.92
2023-01-27T16:37:28.075Z,95.64
2023-01-27T16:39:55.177Z,95.02
2023-01-27T16:42:30.937Z,94.15
2023-01-27T16:45:02.644Z,94.41
2023-01-27T16:47:44.055Z,93.95
2023-01-27T16:50:36.196Z,93.41
2023-01-27T16:53:05.840Z,93.13
2023-01-27T16:55:32.989Z,92.44
2023-01-27T16:58:01.874Z,92.00
2023-01-27T17:00:32.528Z,92.18
2023-01-27T17:03:03.956Z,91.37
2023-01-27T17:05:31.360Z,91.67
2023-01-27T17:08:30.627Z,92.19
2023-01-27T17:11:05.152Z,92.14
2023-01-27T17:13:44.669Z,91.32
2023-01-27T17:16:22.478Z,91.12
2023-01-27T17:18:52.919Z,91.01
2023-01-27T17:21:48.475Z,91.01
2023-01-27T17:24:17.782Z,90.26
2023-01-27T17:26:48.351Z,90.31
2023-01-27T17:29:20.111Z,89.96
2023-01-27T17:31:47.820Z,89.33
2023-01-27T17:34:19.544Z,89.12
2023-01-27T17:37:15.339Z,88.24
2023-01-27T17:39:43.558Z,88.42
2023-01-27T17:42:15.871Z,88.33
2023-01-27T17:44:44.215Z,88.24
2023-01-27T17:47:18.505Z,87.63
2023-01-27T17:49:48.437Z,87.02
2023-01-27T17:52:25.101Z,86.83
2023-01-27T17:54:52.578Z,86.64
2023-01-27T17:57:37.231Z,86.37
2023-01-27T18:00:12.687Z,86.21
2023-01-27T18:02:45.514Z,86.70
2023-01-27T18:05:21.004Z,86.67
2023-01-27T18:07:48.783Z,86.84
2023-01-27T18:10:28.034Z,86.33
2023-01-27T18:12:55.334Z,86.82
2023-01-27T18:15:37.585Z,86.70
2023-01-27T18:18:26.305Z,85.91
2023-01-27T18:21:08.426Z,86.19
2023-01-27T18:23:36.522Z,86.00
2023-01-27T18:26:42.520Z,84.97
2023-01-27T18:29:22.914Z,84.89
2023-01-27T18:32:10.426Z,85.52
2023-01-27T18:34:46.479Z,84.56
2023-01-27T18:37:25.334Z,83.82
2023-01-27T18:39:52.858Z,83.81
2023-01-27T18:42:21.589Z,84.13
2023-01-27T18:44:53.513Z,83.53
2023-01-27T18:47:20.639Z,83.70
2023-01-27T18:49:57.975Z,83.96
2023-01-27T18:52:25.415Z,84.06
2023-01-27T18:54:58.802Z,84.17
2023-01-27T18:57:25.902Z,83.43
2023-01-27T18:59:53.068Z,83.85
2023-01-27T19:02:20.804Z,83.58
2023-01-27T19:04:48.273Z,83.94
2023-01-27T19:07:17.972Z,83.93
2023-01-27T19:09:46.988Z,84.14
2023-01-27T19:12:14.265Z,84.80
2023-01-27T19:14:42.149Z,84.82
2023-01-27T19:17:24.415Z,85.53
2023-01-27T19:19:51.766Z,84.89
2023-01-27T19:22:20.905Z,85.01
2023-01-27T19:24:48.811Z,84.81
2023-01-27T19:27:17.950Z,83.55
2023-01-27T19:29:45.225Z,83.33
2023-01-27T19:32:14.602Z,83.85
2023-01-27T19:34:42.034Z,84.12
2023-01-27T19:37:19.181Z,83.36
2023-01-27T19:39:47.040Z,83.62
2023-01-27T19:42:16.042Z,82.80
2023-01-27T19:44:43.343Z,82.52
2023-01-27T19:47:12.589Z,82.96
2023-01-27T19:49:40.633Z,83.01
2023-01-27T19:52:07.956Z,82.60
2023-01-27T19:54:35.302Z,82.75
2023-01-27T19:57:02.509Z,82.61
2023-01-27T19:59:29.643Z,83.08
2023-01-27T20:01:57.200Z,82.61
2023-01-27T20:04:24.497Z,82.49
2023-01-27T20:06:51.645Z,82.46
2023-01-27T20:09:21.590Z,82.20
2023-01-27T20:11:48.741Z,81.82
2023-01-27T20:14:26.073Z,81.55
2023-01-27T20:16:53.270Z,81.62
2023-01-27T20:19:20.425Z,81.51
2023-01-27T20:21:47.629Z,80.96
2023-01-27T20:24:19.457Z,80.77
2023-01-27T20:26:47.061Z,80.73
2023-01-27T20:29:14.427Z,81.41
2023-01-27T20:31:42.179Z,81.02
2023-01-27T20:34:09.453Z,80.93
2023-01-27T20:36:36.675Z,81.43
2023-01-27T20:39:04.101Z,81.74
2023-01-27T20:41:31.300Z,81.61
2023-01-27T20:44:00.705Z,81.47
2023-01-27T20:46:29.253Z,81.45
2023-01-27T20:48:58.373Z,81.94
2023-01-27T20:51:25.491Z,81.71
2023-01-27T20:53:52.757Z,81.86
2023-01-27T20:56:23.017Z,81.11
2023-01-27T20:58:50.926Z,81.29
2023-01-27T21:01:20.639Z,81.27
2023-01-27T21:03:48.437Z,81.51
2023-01-27T21:06:17.939Z,81.71
2023-01-27T21:08:45.090Z,81.61
2023-01-27T21:11:13.235Z,82.21
2023-01-27T21:13:40.470Z,81.61
2023-01-27T21:16:08.603Z,80.88
2023-01-27T21:18:36.804Z,81.02
2023-01-27T21:21:04.810Z,81.55
2023-01-27T21:23:33.905Z,81.63
2023-01-27T21:26:11.866Z,81.33
2023-01-27T21:28:38.995Z,81.87
2023-01-27T21:31:12.010Z,81.90
2023-01-27T21:33:40.886Z,82.19
2023-01-27T21:36:10.761Z,82.08
2023-01-27T21:38:38.415Z,81.95
2023-01-27T21:41:14.314Z,82.16
2023-01-27T21:43:59.783Z,81.90
2023-01-27T21:46:26.868Z,82.21
2023-01-27T21:48:54.023Z,81.23
2023-01-27T21:51:21.863Z,81.67
2023-01-27T21:53:49.007Z,81.48
2023-01-27T21:56:16.192Z,81.67
2023-01-27T21:58:43.259Z,82.00
2023-01-27T22:01:10.969Z,81.95
2023-01-27T22:03:38.590Z,81.73
2023-01-27T22:06:07.299Z,81.06
2023-01-27T22:08:35.200Z,81.60
2023-01-27T22:11:06.690Z,81.38
2023-01-27T22:13:34.168Z,81.80
2023-01-27T22:16:02.251Z,81.37
2023-01-27T22:18:29.968Z,81.74
2023-01-27T22:21:00.782Z,81.48
2023-01-27T22:23:28.006Z,81.53
2023-01-27T22:25:55.229Z,81.73
2023-01-27T22:28:26.886Z,81.66
2023-01-27T22:30:54.714Z,82.01
2023-01-27T22:33:21.919Z,82.18
2023-01-27T22:35:49.050Z,82.12
2023-01-27T22:38:16.202Z,81.88
2023-01-27T22:40:43.330Z,82.56
2023-01-27T22:43:10.902Z,82.36
2023-01-27T22:45:39.132Z,82.09
2023-01-27T22:48:06.234Z,82.51
2023-01-27T22:50:33.273Z,82.02
2023-01-27T22:53:00.470Z,82.63
2023-01-27T22:55:27.494Z,82.66
2023-01-27T22:57:54.600Z,82.89
2023-01-27T23:00:21.748Z,82.69
2023-01-27T23:02:48.993Z,82.73
2023-01-27T23:05:16.554Z,83.03
2023-01-27T23:07:43.771Z,83.18
2023-01-27T23:10:11.277Z,82.85
2023-01-27T23:12:38.422Z,83.21
2023-01-27T23:15:06.195Z,83.30
2023-01-27T23:17:33.325Z,83.30
2023-01-27T23:20:00.395Z,82.98
2023-01-27T23:22:27.529Z,82.89
2023-01-27T23:24:54.605Z,82.44
2023-01-27T23:27:21.793Z,82.31
2023-01-27T23:29:48.903Z,82.27
2023-01-27T23:32:16.014Z,82.46
2023-01-27T23:34:43.147Z,82.26
2023-01-27T23:37:10.283Z,82.91
2023-01-27T23:39:37.428Z,82.69
2023-01-27T23:42:04.693Z,82.46
2023-01-27T23:44:31.716Z,81.96
2023-01-27T23:46:58.841Z,82.49
2023-01-27T23:49:25.891Z,82.74
2023-01-27T23:51:53.056Z,82.32
2023-01-27T23:54:20.095Z,82.82
2023-01-27T23:56:47.226Z,83.11
2023-01-27T23:59:14.384Z,82.78
